Climatologie pour Saint-Brevin les Pins
Jour • Résumé pour mai 24, 2017 Système :  Métrique    Anglais   Mixte
« - 1 jour
+ 1 jour »
Jour Semaine Mois Année Personnalisé
  Maximum : Minimum : Moyenne :
Température sous abri : 26.7 °C 13.8 °C 20.1 °C
Point de rosée : 19.3 °C 13.0 °C 16.1 °C
Humidité : 96 % 59 % 79 %
Vitesse du vent : 22.5 km/h 0.0 km/h 6.2 km/h
Rafale : 27.4 km/h - -
Direction :- - ENE
Pression : 1025.3 hPa 1020.5 hPa -
Précipitations : 0.0 mm    
Historical Graphs
 
 
Tableau de données pour mai 24, 2017
Heure Tempé Pt rosée Pression Vent Vitesse Rafale Humidité Taux pluie (/hr) Soleil
00:00 14.9 °C 14.2 °C 1024.6 hPa Calm   1.6 km/h 95 % 0.0 mm 0 W/m2
00:05 15.0 °C 14.4 °C 1024.9 hPa Calm   4.8 km/h 96 % 0.0 mm 0 W/m2
00:10 15.0 °C 14.4 °C 1024.9 hPa North 3.2 km/h 6.4 km/h 96 % 0.0 mm 0 W/m2
00:15 15.0 °C 14.4 °C 1024.9 hPa NNE 1.6 km/h 6.4 km/h 96 % 0.0 mm 0 W/m2
00:20 14.8 °C 14.2 °C 1024.9 hPa North 3.2 km/h 6.4 km/h 96 % 0.0 mm 0 W/m2
00:25 14.9 °C 14.3 °C 1024.6 hPa Calm   6.4 km/h 96 % 0.0 mm 0 W/m2
00:30 14.9 °C 14.3 °C 1024.6 hPa NNE 1.6 km/h 6.4 km/h 96 % 0.0 mm 0 W/m2
00:35 14.9 °C 14.3 °C 1024.6 hPa NE 3.2 km/h 6.4 km/h 96 % 0.0 mm 0 W/m2
00:45 15.2 °C 14.6 °C 1024.6 hPa NNE 1.6 km/h 8.0 km/h 96 % 0.0 mm 0 W/m2
00:50 15.3 °C 14.6 °C 1024.6 hPa NNE 1.6 km/h 6.4 km/h 96 % 0.0 mm 0 W/m2
00:55 15.2 °C 14.5 °C 1024.6 hPa NE 4.8 km/h 6.4 km/h 96 % 0.0 mm 0 W/m2
01:00 15.1 °C 14.5 °C 1024.6 hPa NNE 1.6 km/h 6.4 km/h 96 % 0.0 mm 0 W/m2
01:05 15.0 °C 14.4 °C 1024.6 hPa NE 1.6 km/h 8.0 km/h 96 % 0.0 mm 0 W/m2
01:10 15.2 °C 14.5 °C 1024.6 hPa NE 3.2 km/h 8.0 km/h 96 % 0.0 mm 0 W/m2
01:15 15.2 °C 14.5 °C 1024.6 hPa NE 6.4 km/h 8.0 km/h 96 % 0.0 mm 0 W/m2
01:20 15.2 °C 14.4 °C 1024.6 hPa North 3.2 km/h 8.0 km/h 95 % 0.0 mm 0 W/m2
01:25 15.2 °C 14.4 °C 1024.6 hPa NNE 3.2 km/h 11.3 km/h 95 % 0.0 mm 0 W/m2
01:30 15.2 °C 14.4 °C 1024.6 hPa NE 6.4 km/h 11.3 km/h 95 % 0.0 mm 0 W/m2
01:35 15.1 °C 14.1 °C 1024.6 hPa North 3.2 km/h 8.0 km/h 94 % 0.0 mm 0 W/m2
01:40 15.1 °C 14.3 °C 1024.6 hPa NNE 4.8 km/h 8.0 km/h 95 % 0.0 mm 0 W/m2
01:45 15.0 °C 14.0 °C 1024.6 hPa ENE 4.8 km/h 8.0 km/h 94 % 0.0 mm 0 W/m2
01:50 15.0 °C 14.0 °C 1024.6 hPa Calm   8.0 km/h 94 % 0.0 mm 0 W/m2
01:55 15.2 °C 14.4 °C 1024.6 hPa Calm   8.0 km/h 95 % 0.0 mm 0 W/m2
02:00 15.1 °C 14.2 °C 1024.6 hPa Calm   6.4 km/h 94 % 0.0 mm 0 W/m2
02:05 15.1 °C 14.2 °C 1024.6 hPa North 3.2 km/h 8.0 km/h 94 % 0.0 mm 0 W/m2
02:10 15.0 °C 14.2 °C 1024.6 hPa NE 1.6 km/h 9.7 km/h 95 % 0.0 mm 0 W/m2
02:15 14.9 °C 14.0 °C 1024.6 hPa Calm   9.7 km/h 94 % 0.0 mm 0 W/m2
02:20 14.9 °C 14.0 °C 1024.6 hPa ENE 1.6 km/h 6.4 km/h 94 % 0.0 mm 0 W/m2
02:25 14.8 °C 13.9 °C 1024.6 hPa Calm   4.8 km/h 94 % 0.0 mm 0 W/m2
02:30 14.8 °C 14.0 °C 1024.6 hPa Calm   6.4 km/h 95 % 0.0 mm 0 W/m2
02:35 14.8 °C 13.9 °C 1024.6 hPa NNE 6.4 km/h 6.4 km/h 94 % 0.0 mm 0 W/m2
02:40 14.8 °C 14.0 °C 1024.6 hPa Calm   6.4 km/h 95 % 0.0 mm 0 W/m2
02:45 14.7 °C 13.8 °C 1024.6 hPa Calm   6.4 km/h 94 % 0.0 mm 0 W/m2
02:50 14.5 °C 13.5 °C 1024.6 hPa Calm   4.8 km/h 94 % 0.0 mm 0 W/m2
02:55 14.3 °C 13.4 °C 1024.6 hPa Calm   4.8 km/h 94 % 0.0 mm 0 W/m2
03:00 14.2 °C 13.4 °C 1024.6 hPa ENE 1.6 km/h 3.2 km/h 95 % 0.0 mm 0 W/m2
03:05 14.2 °C 13.6 °C 1024.6 hPa Calm   3.2 km/h 96 % 0.0 mm 0 W/m2
03:10 14.1 °C 13.3 °C 1024.6 hPa East 4.8 km/h 6.4 km/h 95 % 0.0 mm 0 W/m2
03:15 13.9 °C 13.2 °C 1024.6 hPa Calm   8.0 km/h 95 % 0.0 mm 0 W/m2
03:20 13.8 °C 13.0 °C 1024.6 hPa Calm   8.0 km/h 95 % 0.0 mm 0 W/m2
03:25 13.8 °C 13.2 °C 1024.6 hPa NNE 3.2 km/h 4.8 km/h 96 % 0.0 mm 0 W/m2
03:30 14.0 °C 13.4 °C 1024.6 hPa Calm   4.8 km/h 96 % 0.0 mm 0 W/m2
03:35 14.1 °C 13.4 °C 1024.6 hPa ENE 3.2 km/h 6.4 km/h 96 % 0.0 mm 0 W/m2
03:40 14.2 °C 13.5 °C 1024.3 hPa ENE 4.8 km/h 8.0 km/h 96 % 0.0 mm 0 W/m2
03:45 14.1 °C 13.3 °C 1024.6 hPa ENE 4.8 km/h 8.0 km/h 95 % 0.0 mm 0 W/m2
03:50 13.9 °C 13.3 °C 1024.6 hPa ENE 1.6 km/h 6.4 km/h 96 % 0.0 mm 0 W/m2
03:55 13.9 °C 13.1 °C 1024.6 hPa Calm   8.0 km/h 95 % 0.0 mm 0 W/m2
04:00 14.0 °C 13.4 °C 1024.6 hPa Calm   8.0 km/h 96 % 0.0 mm 0 W/m2
04:05 13.9 °C 13.1 °C 1024.6 hPa ENE 4.8 km/h 6.4 km/h 95 % 0.0 mm 0 W/m2
04:10 13.8 °C 13.2 °C 1024.6 hPa ENE 1.6 km/h 8.0 km/h 96 % 0.0 mm 0 W/m2
04:15 13.9 °C 13.3 °C 1024.6 hPa NE 1.6 km/h 8.0 km/h 96 % 0.0 mm 0 W/m2
04:20 13.9 °C 13.3 °C 1024.6 hPa Calm   8.0 km/h 96 % 0.0 mm 0 W/m2
04:25 13.9 °C 13.3 °C 1024.6 hPa ENE 3.2 km/h 8.0 km/h 96 % 0.0 mm 0 W/m2
04:30 14.1 °C 13.4 °C 1024.6 hPa Calm   8.0 km/h 96 % 0.0 mm 0 W/m2
04:35 14.0 °C 13.4 °C 1024.6 hPa NE 1.6 km/h 8.0 km/h 96 % 0.0 mm 0 W/m2
04:40 13.9 °C 13.3 °C 1024.6 hPa Calm   9.7 km/h 96 % 0.0 mm 0 W/m2
04:45 13.9 °C 13.3 °C 1024.6 hPa ENE 3.2 km/h 12.9 km/h 96 % 0.0 mm 0 W/m2
04:50 13.8 °C 13.0 °C 1024.6 hPa ENE 1.6 km/h 12.9 km/h 95 % 0.0 mm 0 W/m2
04:55 13.9 °C 13.3 °C 1024.6 hPa East 3.2 km/h 11.3 km/h 96 % 0.0 mm 0 W/m2
05:00 14.1 °C 13.4 °C 1024.6 hPa ENE 4.8 km/h 11.3 km/h 96 % 0.0 mm 0 W/m2
05:05 13.9 °C 13.3 °C 1024.6 hPa NNE 1.6 km/h 9.7 km/h 96 % 0.0 mm 0 W/m2
05:15 14.1 °C 13.5 °C 1024.3 hPa East 4.8 km/h 12.9 km/h 96 % 0.0 mm 0 W/m2
05:20 14.2 °C 13.6 °C 1024.3 hPa ENE 3.2 km/h 14.5 km/h 96 % 0.0 mm 0 W/m2
05:25 14.3 °C 13.7 °C 1024.3 hPa ENE 3.2 km/h 14.5 km/h 96 % 0.0 mm 0 W/m2
05:30 14.3 °C 13.5 °C 1024.3 hPa East 3.2 km/h 11.3 km/h 95 % 0.0 mm 0 W/m2
05:35 14.3 °C 13.7 °C 1024.3 hPa Calm   11.3 km/h 96 % 0.0 mm 0 W/m2
05:40 14.2 °C 13.4 °C 1024.3 hPa East 4.8 km/h 11.3 km/h 95 % 0.0 mm 0 W/m2
05:45 14.1 °C 13.3 °C 1024.3 hPa East 4.8 km/h 11.3 km/h 95 % 0.0 mm 0 W/m2
05:50 14.1 °C 13.3 °C 1024.3 hPa Calm   11.3 km/h 95 % 0.0 mm 0 W/m2
05:55 13.9 °C 13.2 °C 1024.3 hPa ENE 6.4 km/h 11.3 km/h 95 % 0.0 mm 0 W/m2
06:00 13.9 °C 13.2 °C 1024.3 hPa ENE 3.2 km/h 12.9 km/h 95 % 0.0 mm 0 W/m2
06:05 14.1 °C 13.5 °C 1024.3 hPa ENE 3.2 km/h 12.9 km/h 96 % 0.0 mm 0 W/m2
06:10 14.2 °C 13.5 °C 1024.3 hPa ESE 4.8 km/h 11.3 km/h 96 % 0.0 mm 0 W/m2
06:15 14.2 °C 13.6 °C 1024.6 hPa ENE 3.2 km/h 11.3 km/h 96 % 0.0 mm 0 W/m2
06:20 14.3 °C 13.6 °C 1024.6 hPa East 8.0 km/h 11.3 km/h 96 % 0.0 mm 0 W/m2
06:25 14.3 °C 13.6 °C 1024.6 hPa East 4.8 km/h 16.1 km/h 96 % 0.0 mm 0 W/m2
06:30 14.4 °C 13.8 °C 1024.6 hPa East 11.3 km/h 16.1 km/h 96 % 0.0 mm 5 W/m2
06:35 14.4 °C 13.8 °C 1024.6 hPa ENE 14.5 km/h 14.5 km/h 96 % 0.0 mm 9 W/m2
06:40 14.4 °C 13.8 °C 1024.6 hPa NE 4.8 km/h 14.5 km/h 96 % 0.0 mm 11 W/m2
06:45 14.4 °C 13.8 °C 1024.6 hPa East 12.9 km/h 14.5 km/h 96 % 0.0 mm 14 W/m2
06:50 14.4 °C 13.8 °C 1024.6 hPa NE 6.4 km/h 14.5 km/h 96 % 0.0 mm 16 W/m2
06:55 14.4 °C 13.8 °C 1024.6 hPa NE 3.2 km/h 14.5 km/h 96 % 0.0 mm 19 W/m2
07:00 14.4 °C 13.8 °C 1024.9 hPa ENE 3.2 km/h 11.3 km/h 96 % 0.0 mm 21 W/m2
07:05 14.4 °C 13.8 °C 1024.9 hPa Calm   11.3 km/h 96 % 0.0 mm 25 W/m2
07:10 14.4 °C 13.8 °C 1024.9 hPa NE 6.4 km/h 12.9 km/h 96 % 0.0 mm 26 W/m2
07:15 14.4 °C 13.8 °C 1024.9 hPa ENE 4.8 km/h 12.9 km/h 96 % 0.0 mm 28 W/m2
07:20 14.5 °C 13.9 °C 1024.6 hPa ENE 4.8 km/h 12.9 km/h 96 % 0.0 mm 32 W/m2
07:25 14.6 °C 13.9 °C 1024.6 hPa ENE 4.8 km/h 11.3 km/h 96 % 0.0 mm 33 W/m2
07:30 14.7 °C 14.0 °C 1024.9 hPa East 9.7 km/h 11.3 km/h 96 % 0.0 mm 35 W/m2
07:35 14.7 °C 14.1 °C 1024.9 hPa ESE 1.6 km/h 14.5 km/h 96 % 0.0 mm 37 W/m2
07:40 14.8 °C 14.2 °C 1024.9 hPa East 4.8 km/h 14.5 km/h 96 % 0.0 mm 39 W/m2
07:45 14.9 °C 14.3 °C 1024.6 hPa ENE 1.6 km/h 14.5 km/h 96 % 0.0 mm 40 W/m2
07:50 15.0 °C 14.4 °C 1024.9 hPa NE 6.4 km/h 16.1 km/h 96 % 0.0 mm 44 W/m2
07:55 15.1 °C 14.4 °C 1024.9 hPa East 3.2 km/h 16.1 km/h 96 % 0.0 mm 46 W/m2
08:00 15.2 °C 14.5 °C 1024.9 hPa NNE 3.2 km/h 14.5 km/h 96 % 0.0 mm 93 W/m2
08:05 15.3 °C 14.6 °C 1024.9 hPa Calm   14.5 km/h 96 % 0.0 mm 207 W/m2
08:10 15.4 °C 14.8 °C 1024.9 hPa East 4.8 km/h 12.9 km/h 96 % 0.0 mm 221 W/m2
08:15 15.6 °C 14.8 °C 1024.9 hPa NNE 6.4 km/h 12.9 km/h 95 % 0.0 mm 234 W/m2
08:20 15.7 °C 14.9 °C 1024.9 hPa ENE 1.6 km/h 14.5 km/h 95 % 0.0 mm 244 W/m2
08:25 15.9 °C 15.0 °C 1024.9 hPa NNE 9.7 km/h 16.1 km/h 94 % 0.0 mm 262 W/m2
08:30 16.0 °C 15.0 °C 1024.9 hPa NE 4.8 km/h 16.1 km/h 94 % 0.0 mm 278 W/m2
08:35 16.1 °C 15.1 °C 1024.9 hPa NE 14.5 km/h 14.5 km/h 94 % 0.0 mm 292 W/m2
08:40 16.2 °C 15.1 °C 1024.9 hPa NNE 12.9 km/h 16.1 km/h 93 % 0.0 mm 299 W/m2
08:45 16.3 °C 15.1 °C 1024.9 hPa NNE 4.8 km/h 20.9 km/h 93 % 0.0 mm 257 W/m2
08:50 16.4 °C 15.1 °C 1025.3 hPa ENE 4.8 km/h 20.9 km/h 92 % 0.0 mm 336 W/m2
08:55 16.4 °C 15.1 °C 1024.9 hPa ENE 1.6 km/h 17.7 km/h 92 % 0.0 mm 350 W/m2
09:00 16.6 °C 15.3 °C 1024.9 hPa East 1.6 km/h 17.7 km/h 92 % 0.0 mm 364 W/m2
09:05 16.8 °C 15.3 °C 1024.9 hPa NE 6.4 km/h 16.1 km/h 91 % 0.0 mm 380 W/m2
09:10 17.1 °C 15.8 °C 1025.3 hPa NNE 4.8 km/h 16.1 km/h 92 % 0.0 mm 394 W/m2
09:15 17.3 °C 15.6 °C 1024.9 hPa NE 12.9 km/h 12.9 km/h 90 % 0.0 mm 410 W/m2
09:20 17.4 °C 15.8 °C 1025.3 hPa NNE 8.0 km/h 14.5 km/h 90 % 0.0 mm 424 W/m2
09:25 17.7 °C 15.9 °C 1025.3 hPa ENE 6.4 km/h 17.7 km/h 89 % 0.0 mm 438 W/m2
09:30 18.0 °C 16.0 °C 1025.3 hPa ENE 20.9 km/h 20.9 km/h 88 % 0.0 mm 452 W/m2
09:35 18.1 °C 15.9 °C 1024.9 hPa East 11.3 km/h 20.9 km/h 87 % 0.0 mm 468 W/m2
09:40 18.3 °C 16.1 °C 1024.9 hPa ENE 17.7 km/h 20.9 km/h 87 % 0.0 mm 478 W/m2
09:45 18.6 °C 16.2 °C 1025.3 hPa ENE 9.7 km/h 19.3 km/h 86 % 0.0 mm 494 W/m2
09:50 18.8 °C 16.4 °C 1025.3 hPa NE 3.2 km/h 17.7 km/h 86 % 0.0 mm 506 W/m2
09:55 19.0 °C 16.4 °C 1025.3 hPa Calm   16.1 km/h 85 % 0.0 mm 522 W/m2
10:00 19.3 °C 16.6 °C 1024.9 hPa East 9.7 km/h 16.1 km/h 84 % 0.0 mm 534 W/m2
10:05 19.4 °C 16.4 °C 1024.9 hPa ENE 1.6 km/h 20.9 km/h 83 % 0.0 mm 547 W/m2
10:10 19.9 °C 17.3 °C 1024.9 hPa ENE 8.0 km/h 20.9 km/h 85 % 0.0 mm 559 W/m2
10:15 19.8 °C 16.7 °C 1024.9 hPa ENE 3.2 km/h 17.7 km/h 82 % 0.0 mm 578 W/m2
10:20 19.9 °C 16.5 °C 1024.9 hPa ENE 4.8 km/h 17.7 km/h 81 % 0.0 mm 591 W/m2
10:25 20.0 °C 16.8 °C 1024.9 hPa ENE 4.8 km/h 19.3 km/h 82 % 0.0 mm 603 W/m2
10:30 20.1 °C 16.9 °C 1024.9 hPa NE 3.2 km/h 19.3 km/h 82 % 0.0 mm 612 W/m2
10:40 20.8 °C 17.2 °C 1024.9 hPa NE 1.6 km/h 16.1 km/h 80 % 0.0 mm 638 W/m2
10:45 20.9 °C 17.5 °C 1024.9 hPa East 11.3 km/h 17.7 km/h 81 % 0.0 mm 649 W/m2
10:50 21.2 °C 18.0 °C 1024.9 hPa ESE 12.9 km/h 17.7 km/h 82 % 0.0 mm 666 W/m2
10:55 21.3 °C 17.1 °C 1024.9 hPa East 4.8 km/h 14.5 km/h 77 % 0.0 mm 679 W/m2
11:00 21.3 °C 17.3 °C 1024.6 hPa ENE 8.0 km/h 16.1 km/h 78 % 0.0 mm 686 W/m2
11:05 21.6 °C 17.6 °C 1024.6 hPa East 4.8 km/h 16.1 km/h 78 % 0.0 mm 700 W/m2
11:10 21.9 °C 17.7 °C 1024.6 hPa ENE 8.0 km/h 14.5 km/h 77 % 0.0 mm 701 W/m2
11:15 22.0 °C 17.6 °C 1024.6 hPa ESE 6.4 km/h 14.5 km/h 76 % 0.0 mm 719 W/m2
11:20 22.6 °C 17.7 °C 1024.6 hPa SE 6.4 km/h 14.5 km/h 74 % 0.0 mm 728 W/m2
11:25 22.8 °C 18.0 °C 1024.6 hPa ENE 3.2 km/h 19.3 km/h 74 % 0.0 mm 742 W/m2
11:30 22.8 °C 17.3 °C 1024.6 hPa East 11.3 km/h 19.3 km/h 71 % 0.0 mm 751 W/m2
11:35 22.8 °C 17.7 °C 1024.6 hPa ENE 14.5 km/h 19.3 km/h 73 % 0.0 mm 759 W/m2
11:40 22.8 °C 17.2 °C 1024.6 hPa ENE 8.0 km/h 17.7 km/h 71 % 0.0 mm 773 W/m2
11:45 22.9 °C 17.4 °C 1024.6 hPa ENE 6.4 km/h 17.7 km/h 71 % 0.0 mm 780 W/m2
11:50 23.1 °C 17.5 °C 1024.6 hPa ESE 4.8 km/h 17.7 km/h 71 % 0.0 mm 782 W/m2
11:55 23.2 °C 17.6 °C 1024.6 hPa East 3.2 km/h 19.3 km/h 71 % 0.0 mm 798 W/m2
12:00 23.5 °C 17.9 °C 1024.6 hPa East 12.9 km/h 19.3 km/h 71 % 0.0 mm 805 W/m2
12:05 23.8 °C 17.8 °C 1024.6 hPa Calm   16.1 km/h 69 % 0.0 mm 816 W/m2
12:10 23.7 °C 17.9 °C 1024.6 hPa ENE 12.9 km/h 16.1 km/h 70 % 0.0 mm 844 W/m2
12:15 23.7 °C 17.6 °C 1024.3 hPa East 11.3 km/h 17.7 km/h 69 % 0.0 mm 884 W/m2
12:20 23.8 °C 18.4 °C 1024.3 hPa ENE 4.8 km/h 17.7 km/h 72 % 0.0 mm 884 W/m2
12:25 23.6 °C 17.3 °C 1024.3 hPa NE 6.4 km/h 20.9 km/h 68 % 0.0 mm 893 W/m2
12:30 23.1 °C 17.5 °C 1024.3 hPa ENE 8.0 km/h 20.9 km/h 71 % 0.0 mm 905 W/m2
12:35 23.8 °C 18.9 °C 1024.3 hPa North 1.6 km/h 16.1 km/h 74 % 0.0 mm 902 W/m2
12:40 23.9 °C 18.4 °C 1024.3 hPa ENE 14.5 km/h 16.1 km/h 71 % 0.0 mm 221 W/m2
12:45 23.8 °C 18.0 °C 1024.3 hPa East 1.6 km/h 16.1 km/h 70 % 0.0 mm 926 W/m2
12:50 24.6 °C 18.9 °C 1024.3 hPa SSE 6.4 km/h 19.3 km/h 71 % 0.0 mm 988 W/m2
12:55 24.6 °C 18.5 °C 1024.3 hPa East 17.7 km/h 19.3 km/h 69 % 0.0 mm 995 W/m2
13:00 24.5 °C 17.7 °C 1024.3 hPa NNE 14.5 km/h 20.9 km/h 66 % 0.0 mm 921 W/m2
13:05 24.1 °C 18.5 °C 1024.3 hPa ENE 1.6 km/h 20.9 km/h 71 % 0.0 mm 1095 W/m2
13:15 24.3 °C 18.3 °C 1023.9 hPa NNE 11.3 km/h 19.3 km/h 69 % 0.0 mm 1027 W/m2
13:20 24.4 °C 18.2 °C 1023.9 hPa East 4.8 km/h 19.3 km/h 68 % 0.0 mm 1013 W/m2
13:25 24.7 °C 17.9 °C 1023.9 hPa NNE 9.7 km/h 19.3 km/h 66 % 0.0 mm 1099 W/m2
13:30 24.8 °C 17.5 °C 1023.9 hPa East 6.4 km/h 17.7 km/h 64 % 0.0 mm 334 W/m2
13:35 23.8 °C 17.6 °C 1023.9 hPa NNE 4.8 km/h 17.7 km/h 68 % 0.0 mm 269 W/m2
13:40 24.2 °C 17.7 °C 1023.9 hPa ESE 11.3 km/h 17.7 km/h 67 % 0.0 mm 1144 W/m2
13:45 25.3 °C 18.7 °C 1023.9 hPa East 11.3 km/h 19.3 km/h 67 % 0.0 mm 290 W/m2
13:50 24.3 °C 17.6 °C 1023.9 hPa East 11.3 km/h 19.3 km/h 66 % 0.0 mm 318 W/m2
13:55 25.1 °C 17.8 °C 1023.9 hPa ENE 22.5 km/h 22.5 km/h 64 % 0.0 mm 1164 W/m2
14:00 24.0 °C 17.7 °C 1023.6 hPa ENE 11.3 km/h 24.1 km/h 68 % 0.0 mm 338 W/m2
14:05 23.8 °C 17.7 °C 1023.6 hPa NNE 4.8 km/h 24.1 km/h 69 % 0.0 mm 432 W/m2
14:10 24.6 °C 18.3 °C 1023.6 hPa East 8.0 km/h 16.1 km/h 68 % 0.0 mm 1092 W/m2
14:15 25.1 °C 18.3 °C 1023.6 hPa SE 11.3 km/h 20.9 km/h 66 % 0.0 mm 1076 W/m2
14:20 24.9 °C 17.7 °C 1023.6 hPa East 3.2 km/h 20.9 km/h 64 % 0.0 mm 352 W/m2
14:25 25.1 °C 17.8 °C 1023.6 hPa East 16.1 km/h 20.9 km/h 64 % 0.0 mm 947 W/m2
14:30 25.5 °C 18.2 °C 1023.2 hPa East 1.6 km/h 20.9 km/h 64 % 0.0 mm 983 W/m2
14:35 25.4 °C 17.4 °C 1023.2 hPa ENE 3.2 km/h 16.1 km/h 61 % 0.0 mm 301 W/m2
14:40 25.3 °C 17.8 °C 1023.2 hPa NNE 8.0 km/h 19.3 km/h 63 % 0.0 mm 1116 W/m2
14:45 25.3 °C 17.7 °C 1023.2 hPa ENE 11.3 km/h 19.3 km/h 63 % 0.0 mm 772 W/m2
14:50 25.2 °C 18.4 °C 1023.2 hPa East 9.7 km/h 19.3 km/h 66 % 0.0 mm 1021 W/m2
14:55 25.0 °C 17.5 °C 1023.2 hPa Calm   17.7 km/h 63 % 0.0 mm 322 W/m2
15:00 24.6 °C 17.8 °C 1023.2 hPa ENE 11.3 km/h 17.7 km/h 66 % 0.0 mm 1025 W/m2
15:05 25.3 °C 19.0 °C 1023.2 hPa East 1.6 km/h 16.1 km/h 68 % 0.0 mm 1051 W/m2
15:10 25.4 °C 18.1 °C 1023.2 hPa NE 9.7 km/h 17.7 km/h 64 % 0.0 mm 995 W/m2
15:15 25.8 °C 18.5 °C 1023.2 hPa East 4.8 km/h 17.7 km/h 64 % 0.0 mm 283 W/m2
15:20 25.8 °C 17.7 °C 1023.2 hPa East 8.0 km/h 22.5 km/h 61 % 0.0 mm 925 W/m2
15:25 25.9 °C 19.3 °C 1022.9 hPa East 9.7 km/h 22.5 km/h 67 % 0.0 mm 874 W/m2
15:30 26.1 °C 18.3 °C 1022.9 hPa WNW 3.2 km/h 20.9 km/h 62 % 0.0 mm 983 W/m2
15:35 25.1 °C 17.3 °C 1022.9 hPa East 11.3 km/h 22.5 km/h 62 % 0.0 mm 156 W/m2
15:40 25.4 °C 17.8 °C 1022.9 hPa East 14.5 km/h 22.5 km/h 63 % 0.0 mm 858 W/m2
15:45 25.9 °C 18.4 °C 1022.9 hPa East 9.7 km/h 22.5 km/h 63 % 0.0 mm 896 W/m2
15:50 25.9 °C 17.8 °C 1022.9 hPa East 12.9 km/h 19.3 km/h 61 % 0.0 mm 861 W/m2
15:55 26.2 °C 18.6 °C 1022.9 hPa ESE 14.5 km/h 19.3 km/h 63 % 0.0 mm 868 W/m2
16:00 26.2 °C 18.6 °C 1022.9 hPa East 12.9 km/h 19.3 km/h 63 % 0.0 mm 826 W/m2
16:05 26.2 °C 18.1 °C 1022.6 hPa NE 6.4 km/h 19.3 km/h 61 % 0.0 mm 768 W/m2
16:10 26.1 °C 17.9 °C 1022.6 hPa North 11.3 km/h 22.5 km/h 61 % 0.0 mm 833 W/m2
16:20 26.1 °C 17.9 °C 1022.6 hPa SSE 11.3 km/h 22.5 km/h 61 % 0.0 mm 784 W/m2
16:25 26.2 °C 18.9 °C 1022.2 hPa East 11.3 km/h 17.7 km/h 64 % 0.0 mm 847 W/m2
16:30 26.2 °C 18.1 °C 1022.2 hPa ENE 6.4 km/h 19.3 km/h 61 % 0.0 mm 814 W/m2
16:35 26.3 °C 18.5 °C 1022.2 hPa ESE 11.3 km/h 19.3 km/h 62 % 0.0 mm 740 W/m2
16:40 26.3 °C 18.7 °C 1022.2 hPa East 11.3 km/h 19.3 km/h 63 % 0.0 mm 742 W/m2
16:45 26.7 °C 18.3 °C 1022.2 hPa ENE 6.4 km/h 20.9 km/h 60 % 0.0 mm 782 W/m2
16:50 26.4 °C 17.8 °C 1022.2 hPa NE 6.4 km/h 20.9 km/h 59 % 0.0 mm 408 W/m2
16:55 26.5 °C 18.6 °C 1022.2 hPa ENE 11.3 km/h 17.7 km/h 62 % 0.0 mm 770 W/m2
17:00 26.0 °C 18.4 °C 1021.9 hPa East 8.0 km/h 17.7 km/h 63 % 0.0 mm 698 W/m2
17:05 26.1 °C 18.0 °C 1021.9 hPa East 11.3 km/h 20.9 km/h 61 % 0.0 mm 686 W/m2
17:10 25.9 °C 17.6 °C 1021.9 hPa East 9.7 km/h 22.5 km/h 60 % 0.0 mm 673 W/m2
17:15 26.1 °C 17.4 °C 1021.9 hPa ESE 11.3 km/h 22.5 km/h 59 % 0.0 mm 142 W/m2
17:20 26.2 °C 18.1 °C 1021.9 hPa ENE 12.9 km/h 20.9 km/h 61 % 0.0 mm 640 W/m2
17:25 26.2 °C 18.1 °C 1021.9 hPa East 3.2 km/h 20.9 km/h 61 % 0.0 mm 682 W/m2
17:30 26.3 °C 17.9 °C 1021.9 hPa NNE 4.8 km/h 19.3 km/h 60 % 0.0 mm 613 W/m2
17:35 26.3 °C 18.2 °C 1021.9 hPa ENE 14.5 km/h 22.5 km/h 61 % 0.0 mm 622 W/m2
17:40 26.4 °C 17.7 °C 1021.6 hPa East 4.8 km/h 22.5 km/h 59 % 0.0 mm 589 W/m2
17:45 26.3 °C 18.5 °C 1021.6 hPa East 4.8 km/h 24.1 km/h 62 % 0.0 mm 587 W/m2
17:50 26.4 °C 17.8 °C 1021.6 hPa East 4.8 km/h 24.1 km/h 59 % 0.0 mm 557 W/m2
17:55 26.4 °C 18.0 °C 1021.6 hPa ENE 4.8 km/h 24.1 km/h 60 % 0.0 mm 547 W/m2
18:00 26.3 °C 17.9 °C 1021.6 hPa ENE 8.0 km/h 24.1 km/h 60 % 0.0 mm 533 W/m2
18:05 26.3 °C 18.2 °C 1021.6 hPa East 11.3 km/h 20.9 km/h 61 % 0.0 mm 515 W/m2
18:10 26.4 °C 17.7 °C 1021.6 hPa East 11.3 km/h 22.5 km/h 59 % 0.0 mm 504 W/m2
18:15 26.4 °C 18.3 °C 1021.2 hPa NNE 1.6 km/h 22.5 km/h 61 % 0.0 mm 490 W/m2
18:20 26.5 °C 17.8 °C 1021.6 hPa East 16.1 km/h 17.7 km/h 59 % 0.0 mm 471 W/m2
18:25 26.1 °C 17.5 °C 1021.6 hPa ENE 6.4 km/h 20.9 km/h 59 % 0.0 mm 462 W/m2
18:30 26.1 °C 17.7 °C 1021.2 hPa ESE 6.4 km/h 20.9 km/h 60 % 0.0 mm 446 W/m2
18:35 26.2 °C 17.8 °C 1021.2 hPa ENE 4.8 km/h 22.5 km/h 60 % 0.0 mm 436 W/m2
18:40 26.3 °C 17.9 °C 1021.2 hPa ENE 1.6 km/h 22.5 km/h 60 % 0.0 mm 420 W/m2
18:45 26.2 °C 17.8 °C 1021.2 hPa East 9.7 km/h 22.5 km/h 60 % 0.0 mm 404 W/m2
18:50 26.0 °C 17.6 °C 1021.2 hPa SE 3.2 km/h 22.5 km/h 60 % 0.0 mm 387 W/m2
18:55 25.9 °C 17.8 °C 1021.2 hPa East 11.3 km/h 27.4 km/h 61 % 0.0 mm 376 W/m2
19:00 26.0 °C 17.9 °C 1020.9 hPa NE 11.3 km/h 27.4 km/h 61 % 0.0 mm 364 W/m2
19:05 25.9 °C 17.3 °C 1020.9 hPa East 8.0 km/h 20.9 km/h 59 % 0.0 mm 350 W/m2
19:10 25.9 °C 17.5 °C 1020.9 hPa NE 12.9 km/h 25.7 km/h 60 % 0.0 mm 336 W/m2
19:15 25.7 °C 17.4 °C 1020.9 hPa ENE 17.7 km/h 25.7 km/h 60 % 0.0 mm 323 W/m2
19:20 25.6 °C 17.3 °C 1020.9 hPa East 20.9 km/h 22.5 km/h 60 % 0.0 mm 308 W/m2
19:25 25.6 °C 17.2 °C 1020.9 hPa ENE 4.8 km/h 25.7 km/h 60 % 0.0 mm 292 W/m2
19:30 25.5 °C 17.4 °C 1020.9 hPa East 3.2 km/h 25.7 km/h 61 % 0.0 mm 278 W/m2
19:35 25.4 °C 17.1 °C 1020.9 hPa ENE 6.4 km/h 24.1 km/h 60 % 0.0 mm 262 W/m2
19:40 25.3 °C 17.3 °C 1020.9 hPa East 8.0 km/h 24.1 km/h 61 % 0.0 mm 248 W/m2
19:45 25.4 °C 17.4 °C 1020.9 hPa East 14.5 km/h 20.9 km/h 61 % 0.0 mm 223 W/m2
19:50 25.4 °C 17.3 °C 1020.9 hPa ENE 14.5 km/h 20.9 km/h 61 % 0.0 mm 199 W/m2
19:55 25.3 °C 17.5 °C 1020.9 hPa NE 8.0 km/h 19.3 km/h 62 % 0.0 mm 179 W/m2
20:00 25.1 °C 17.3 °C 1020.9 hPa ENE 1.6 km/h 19.3 km/h 62 % 0.0 mm 162 W/m2
20:05 25.0 °C 17.2 °C 1020.9 hPa East 8.0 km/h 19.3 km/h 62 % 0.0 mm 171 W/m2
20:10 24.9 °C 17.1 °C 1020.9 hPa ENE 3.2 km/h 17.7 km/h 62 % 0.0 mm 163 W/m2
20:15 24.7 °C 16.9 °C 1020.9 hPa ESE 8.0 km/h 17.7 km/h 62 % 0.0 mm 137 W/m2
20:20 24.8 °C 17.0 °C 1020.9 hPa ENE 8.0 km/h 17.7 km/h 62 % 0.0 mm 121 W/m2
20:25 24.6 °C 17.0 °C 1020.9 hPa East 9.7 km/h 17.7 km/h 63 % 0.0 mm 100 W/m2
20:30 24.2 °C 17.0 °C 1020.9 hPa ESE 8.0 km/h 17.7 km/h 64 % 0.0 mm 47 W/m2
20:35 24.0 °C 17.0 °C 1020.9 hPa ENE 11.3 km/h 19.3 km/h 65 % 0.0 mm 39 W/m2
20:40 23.9 °C 16.9 °C 1020.9 hPa NE 9.7 km/h 19.3 km/h 65 % 0.0 mm 32 W/m2
20:50 23.6 °C 17.1 °C 1020.9 hPa East 1.6 km/h 17.7 km/h 67 % 0.0 mm 26 W/m2
20:55 23.4 °C 17.1 °C 1020.9 hPa ENE 4.8 km/h 17.7 km/h 68 % 0.0 mm 25 W/m2
21:00 23.3 °C 17.0 °C 1020.9 hPa East 12.9 km/h 17.7 km/h 68 % 0.0 mm 23 W/m2
21:05 23.3 °C 16.8 °C 1020.5 hPa East 1.6 km/h 14.5 km/h 67 % 0.0 mm 21 W/m2
21:10 23.1 °C 16.8 °C 1020.9 hPa ENE 3.2 km/h 14.5 km/h 68 % 0.0 mm 19 W/m2
21:15 22.8 °C 16.8 °C 1020.5 hPa East 12.9 km/h 14.5 km/h 69 % 0.0 mm 16 W/m2
21:20 22.7 °C 17.0 °C 1020.5 hPa ENE 6.4 km/h 14.5 km/h 70 % 0.0 mm 14 W/m2
21:25 22.6 °C 16.8 °C 1020.5 hPa ENE 1.6 km/h 14.5 km/h 70 % 0.0 mm 12 W/m2
21:30 22.3 °C 16.8 °C 1020.5 hPa NNE 4.8 km/h 14.5 km/h 71 % 0.0 mm 11 W/m2
21:35 22.1 °C 16.8 °C 1020.5 hPa ENE 4.8 km/h 14.5 km/h 72 % 0.0 mm 7 W/m2
21:40 21.9 °C 16.7 °C 1020.5 hPa NE 4.8 km/h 14.5 km/h 72 % 0.0 mm 7 W/m2
21:45 21.7 °C 16.6 °C 1020.5 hPa ENE 8.0 km/h 14.5 km/h 73 % 0.0 mm 5 W/m2
21:50 21.6 °C 16.8 °C 1020.5 hPa ENE 4.8 km/h 14.5 km/h 74 % 0.0 mm 0 W/m2
21:55 21.4 °C 16.6 °C 1020.5 hPa ENE 6.4 km/h 14.5 km/h 74 % 0.0 mm 0 W/m2
22:00 21.3 °C 16.5 °C 1020.5 hPa ENE 4.8 km/h 14.5 km/h 74 % 0.0 mm 0 W/m2
22:05 21.2 °C 16.6 °C 1020.9 hPa East 8.0 km/h 14.5 km/h 75 % 0.0 mm 0 W/m2
22:10 21.1 °C 16.5 °C 1020.5 hPa ENE 6.4 km/h 12.9 km/h 75 % 0.0 mm 0 W/m2
22:15 20.9 °C 16.3 °C 1020.9 hPa ENE 6.4 km/h 12.9 km/h 75 % 0.0 mm 0 W/m2
22:20 20.7 °C 16.3 °C 1020.9 hPa East 4.8 km/h 12.9 km/h 76 % 0.0 mm 0 W/m2
22:25 20.6 °C 16.4 °C 1020.9 hPa ENE 4.8 km/h 12.9 km/h 77 % 0.0 mm 0 W/m2
22:30 20.4 °C 16.3 °C 1020.9 hPa East 4.8 km/h 11.3 km/h 77 % 0.0 mm 0 W/m2
22:40 20.2 °C 16.3 °C 1020.9 hPa ENE 8.0 km/h 12.9 km/h 78 % 0.0 mm 0 W/m2
22:50 20.1 °C 16.3 °C 1020.9 hPa NNE 4.8 km/h 16.1 km/h 79 % 0.0 mm 0 W/m2
23:00 20.1 °C 16.3 °C 1021.2 hPa East 8.0 km/h 14.5 km/h 79 % 0.0 mm 0 W/m2
23:05 20.1 °C 16.3 °C 1020.9 hPa East 11.3 km/h 14.5 km/h 79 % 0.0 mm 0 W/m2
23:10 20.1 °C 16.3 °C 1020.9 hPa NE 9.7 km/h 14.5 km/h 79 % 0.0 mm 0 W/m2
23:15 20.0 °C 16.2 °C 1020.9 hPa ENE 4.8 km/h 12.9 km/h 79 % 0.0 mm 0 W/m2
23:20 19.9 °C 16.2 °C 1020.9 hPa ENE 4.8 km/h 14.5 km/h 79 % 0.0 mm 0 W/m2
23:30 20.1 °C 16.3 °C 1020.9 hPa East 9.7 km/h 19.3 km/h 79 % 0.0 mm 0 W/m2
23:35 20.0 °C 16.2 °C 1020.9 hPa ENE 6.4 km/h 14.5 km/h 79 % 0.0 mm 0 W/m2
23:40 20.0 °C 16.2 °C 1020.9 hPa East 1.6 km/h 12.9 km/h 79 % 0.0 mm 0 W/m2
23:45 19.8 °C 16.2 °C 1020.9 hPa ENE 4.8 km/h 14.5 km/h 80 % 0.0 mm 0 W/m2
23:50 19.8 °C 16.2 °C 1020.9 hPa East 11.3 km/h 14.5 km/h 80 % 0.0 mm 0 W/m2
23:55 19.7 °C 16.2 °C 1020.9 hPa East 1.6 km/h 14.5 km/h 80 % 0.0 mm 0 W/m2
Avec l'autorisation de Weather Underground - 1.75 mb